Time;durP1;ratioP1;P1;durP2;ratioP2;P2;SDS_P1;SDS_P2;PMS_P1;PMS_P2;Temp;Humidity;BMP_temperature;BMP_pressure;BME280_temperature;BME280_humidity;BME280_pressure;Samples;Min_cycle;Max_cycle;Signal;HPM_P1;HPM_P2
2023/12/06 00:01:06;;;;;;;;;;;;;;;;;;5121978;27;20448;-58
2023/12/06 00:03:31;;;;;;;;;;;;;;;;;;5122149;27;19927;-60
2023/12/06 00:05:59;;;;;;;;;;;;;;;;;;5118675;27;19950;-60
2023/12/06 00:08:26;;;;;;;;;;;;;;;;;;5117616;27;20359;-60
2023/12/06 00:10:52;;;;;;;;;;;;;;;;;;5130786;27;19962;-62
2023/12/06 00:13:19;;;;;;;;;;;;;;;;;;5122327;28;20019;-61
2023/12/06 00:15:45;;;;;;;;;;;;;;;;;;5126530;28;20437;-61
2023/12/06 00:18:12;;;;;;;;;;;;;;;;;;5118013;28;20010;-61
2023/12/06 00:20:38;;;;;;;;;;;;;;;;;;5122977;27;20361;-61
2023/12/06 00:23:06;;;;;;;;;;;;;;;;;;5130302;28;19951;-60
2023/12/06 00:25:32;;;;;;;;;;;;;;;;;;5130651;28;19959;-61
2023/12/06 00:27:59;;;;;;;;;;;;;;;;;;5130747;28;20301;-60
2023/12/06 00:30:25;;;;;;;;;;;;;;;;;;5122181;28;20409;-63
2023/12/06 00:32:52;;;;;;;;;;;;;;;;;;5130784;28;19968;-61
2023/12/06 00:35:18;;;;;;;;;;;;;;;;;;5130755;28;19963;-61
2023/12/06 00:37:45;;;;;;;;;;;;;;;;;;5130270;28;20022;-61
2023/12/06 00:40:13;;;;;;;;;;;;;;;;;;5130880;28;20283;-61
2023/12/06 00:42:40;;;;;;;;;;;;;;;;;;5130460;28;19962;-62
2023/12/06 00:45:06;;;;;;;;;;;;;;;;;;5130926;28;20010;-61
2023/12/06 00:47:33;;;;;;;;;;;;;;;;;;5130500;28;20009;-61
2023/12/06 00:50:00;;;;;;;;;;;;;;;;;;5127097;27;20351;-61
2023/12/06 00:52:26;;;;;;;;;;;;;;;;;;5113739;28;20474;-61
2023/12/06 00:54:52;;;;;;;;;;;;;;;;;;5121911;27;20015;-61
2023/12/06 00:57:20;;;;;;;;;;;;;;;;;;5126318;27;19923;-61
2023/12/06 00:59:47;;;;;;;;;;;;;;;;;;5122741;27;20370;-61
2023/12/06 01:02:13;;;;;;;;;;;;;;;;;;5121540;27;20411;-61
2023/12/06 01:04:40;;;;;;;;;;;;;;;;;;5121054;27;20019;-60
2023/12/06 01:07:07;;;;;;;;;;;;;;;;;;5121428;27;20252;-61
2023/12/06 01:09:33;;;;;;;;;;;;;;;;;;5122596;27;19923;-61
2023/12/06 01:12:00;;;;;;;;;;;;;;;;;;5120362;27;20006;-61
2023/12/06 01:14:27;;;;;;;;;;;;;;;;;;5122250;27;19923;-61
2023/12/06 01:16:54;;;;;;;;;;;;;;;;;;5121393;27;21851;-60
2023/12/06 01:19:20;;;;;;;;;;;;;;;;;;5125368;27;19924;-60
2023/12/06 01:21:47;;;;;;;;;;;;;;;;;;5131677;27;19966;-60
2023/12/06 01:24:13;;;;;;;;;;;;;;;;;;5134031;27;20543;-62
2023/12/06 01:26:40;;;;;;;;;;;;;;;;;;5133024;27;20294;-61
2023/12/06 01:29:08;;;;;;;;;;;;;;;;;;5122155;27;20022;-61
2023/12/06 01:31:35;;;;;;;;;;;;;;;;;;5133706;27;19969;-61
2023/12/06 01:34:02;;;;;;;;;;;;;;;;;;5133270;27;20021;-61
2023/12/06 01:36:28;;;;;;;;;;;;;;;;;;5125335;27;20354;-59
2023/12/06 01:38:55;;;;;;;;;;;;;;;;;;5124038;27;20014;-60
2023/12/06 01:41:21;;;;;;;;;;;;;;;;;;5126834;27;20029;-60
2023/12/06 01:43:48;;;;;;;;;;;;;;;;;;5125728;27;20022;-60
2023/12/06 01:46:14;;;;;;;;;;;;;;;;;;5133026;27;19955;-59
2023/12/06 01:48:43;;;;;;;;;;;;;;;;;;5125112;27;19923;-60
2023/12/06 01:51:10;;;;;;;;;;;;;;;;;;5118121;27;19934;-57
2023/12/06 01:53:37;;;;;;;;;;;;;;;;;;5115705;28;19983;-57
2023/12/06 01:56:05;;;;;;;;;;;;;;;;;;5122025;27;20043;-57
2023/12/06 01:58:32;;;;;;;;;;;;;;;;;;5124479;27;19924;-57
2023/12/06 02:00:59;;;;;;;;;;;;;;;;;;5129160;27;19958;-55
2023/12/06 02:03:25;;;;;;;;;;;;;;;;;;5117565;27;19923;-58
2023/12/06 02:05:54;;;;;;;;;;;;;;;;;;5128420;27;19962;-56
2023/12/06 02:08:21;;;;;;;;;;;;;;;;;;5134830;27;19923;-57
2023/12/06 02:10:48;;;;;;;;;;;;;;;;;;5114953;28;20042;-55
2023/12/06 02:13:14;;;;;;;;;;;;;;;;;;5114819;28;19954;-59
2023/12/06 02:15:41;;;;;;;;;;;;;;;;;;5126304;27;20006;-55
2023/12/06 02:18:08;;;;;;;;;;;;;;;;;;5123477;27;20018;-60
2023/12/06 02:20:34;;;;;;;;;;;;;;;;;;5135306;27;20022;-59
2023/12/06 02:23:04;;;;;;;;;;;;;;;;;;5135317;27;19970;-57
2023/12/06 02:25:32;;;;;;;;;;;;;;;;;;5135478;27;19978;-59
2023/12/06 02:27:59;;;;;;;;;;;;;;;;;;5121016;27;20294;-58
2023/12/06 02:30:25;;;;;;;;;;;;;;;;;;5115617;28;20022;-59
2023/12/06 02:32:52;;;;;;;;;;;;;;;;;;5129047;27;19983;-60
2023/12/06 02:35:21;;;;;;;;;;;;;;;;;;5135461;27;19971;-59
2023/12/06 02:37:49;;;;;;;;;;;;;;;;;;5115523;28;20418;-59
2023/12/06 02:40:16;;;;;;;;;;;;;;;;;;5115268;28;19954;-60
2023/12/06 02:42:44;;;;;;;;;;;;;;;;;;5114693;28;19963;-59
2023/12/06 02:45:10;;;;;;;;;;;;;;;;;;5118390;27;20357;-59
2023/12/06 02:47:37;;;;;;;;;;;;;;;;;;5115268;28;19930;-59
2023/12/06 02:50:03;;;;;;;;;;;;;;;;;;5114702;28;19966;-60
2023/12/06 02:52:30;;;;;;;;;;;;;;;;;;5132498;27;19962;-59
2023/12/06 02:54:56;;;;;;;;;;;;;;;;;;5128740;27;20010;-59
2023/12/06 02:57:23;;;;;;;;;;;;;;;;;;5134850;27;19923;-58
2023/12/06 02:59:51;;;;;;;;;;;;;;;;;;5135154;27;19975;-60
2023/12/06 03:02:17;;;;;;;;;;;;;;;;;;5135462;27;20024;-58
2023/12/06 03:04:44;;;;;;;;;;;;;;;;;;5131181;27;19963;-59
2023/12/06 03:07:10;;;;;;;;;;;;;;;;;;5114889;28;19967;-60
2023/12/06 03:09:37;;;;;;;;;;;;;;;;;;5114863;28;19970;-58
2023/12/06 03:12:03;;;;;;;;;;;;;;;;;;5120964;27;19970;-55
2023/12/06 03:14:30;;;;;;;;;;;;;;;;;;5124549;27;19978;-57
2023/12/06 03:16:58;;;;;;;;;;;;;;;;;;5119669;27;20034;-58
2023/12/06 03:19:24;;;;;;;;;;;;;;;;;;5135385;27;20355;-58
2023/12/06 03:21:51;;;;;;;;;;;;;;;;;;5135224;27;19954;-58
2023/12/06 03:24:17;;;;;;;;;;;;;;;;;;5135738;27;19959;-58
2023/12/06 03:26:44;;;;;;;;;;;;;;;;;;5135280;27;20370;-58
2023/12/06 03:29:10;;;;;;;;;;;;;;;;;;5114877;27;19963;-57
2023/12/06 03:31:37;;;;;;;;;;;;;;;;;;5114262;28;19971;-58
2023/12/06 03:34:05;;;;;;;;;;;;;;;;;;5113987;28;20279;-58
2023/12/06 03:36:31;;;;;;;;;;;;;;;;;;5133095;27;19924;-57
2023/12/06 03:38:58;;;;;;;;;;;;;;;;;;5134342;27;19973;-58
2023/12/06 03:41:24;;;;;;;;;;;;;;;;;;5115875;27;19963;-59
2023/12/06 03:43:51;;;;;;;;;;;;;;;;;;5118409;27;19978;-58
2023/12/06 03:46:17;;;;;;;;;;;;;;;;;;5134379;27;20329;-56
2023/12/06 03:48:44;;;;;;;;;;;;;;;;;;5114915;28;20014;-59
2023/12/06 03:51:12;;;;;;;;;;;;;;;;;;5114050;28;19970;-58
2023/12/06 03:53:39;;;;;;;;;;;;;;;;;;5113993;28;19927;-57
2023/12/06 03:56:06;;;;;;;;;;;;;;;;;;5114065;28;20041;-57
2023/12/06 03:58:34;;;;;;;;;;;;;;;;;;5121921;27;19974;-54
2023/12/06 04:01:01;;;;;;;;;;;;;;;;;;5113799;28;20023;-58
2023/12/06 04:03:28;;;;;;;;;;;;;;;;;;5113399;28;19970;-58
2023/12/06 04:05:54;;;;;;;;;;;;;;;;;;5121838;27;19930;-57
2023/12/06 04:08:22;;;;;;;;;;;;;;;;;;5130507;27;19973;-58
2023/12/06 04:10:48;;;;;;;;;;;;;;;;;;5128214;27;19966;-61
2023/12/06 04:13:15;;;;;;;;;;;;;;;;;;5110950;28;19975;-60
2023/12/06 04:15:41;;;;;;;;;;;;;;;;;;5110666;28;19931;-60
2023/12/06 04:18:08;;;;;;;;;;;;;;;;;;5111016;28;19994;-60
2023/12/06 04:20:34;;;;;;;;;;;;;;;;;;5110766;28;20213;-60
2023/12/06 04:23:01;;;;;;;;;;;;;;;;;;5110908;28;19970;-60
2023/12/06 04:25:29;;;;;;;;;;;;;;;;;;5110739;28;20363;-60
2023/12/06 04:27:56;;;;;;;;;;;;;;;;;;5111095;28;20383;-59
2023/12/06 04:30:22;;;;;;;;;;;;;;;;;;5115092;28;20022;-58
2023/12/06 04:32:49;;;;;;;;;;;;;;;;;;5114596;28;20023;-60
2023/12/06 04:35:15;;;;;;;;;;;;;;;;;;5114687;28;19970;-60
2023/12/06 04:37:42;;;;;;;;;;;;;;;;;;5116948;27;19969;-59
2023/12/06 04:40:09;;;;;;;;;;;;;;;;;;5135421;27;20591;-60
2023/12/06 04:42:36;;;;;;;;;;;;;;;;;;5116123;27;19967;-60
2023/12/06 04:45:03;;;;;;;;;;;;;;;;;;5120989;27;20010;-60
2023/12/06 04:47:30;;;;;;;;;;;;;;;;;;5135109;27;19967;-60
2023/12/06 04:49:56;;;;;;;;;;;;;;;;;;5135718;27;20018;-60
2023/12/06 04:52:24;;;;;;;;;;;;;;;;;;5135455;27;20022;-59
2023/12/06 04:54:50;;;;;;;;;;;;;;;;;;5135368;27;20367;-61
2023/12/06 04:57:17;;;;;;;;;;;;;;;;;;5135063;27;20019;-60
2023/12/06 04:59:45;;;;;;;;;;;;;;;;;;5134925;27;20006;-60
2023/12/06 05:02:11;;;;;;;;;;;;;;;;;;5134409;27;20022;-60
2023/12/06 05:04:38;;;;;;;;;;;;;;;;;;5134537;27;20026;-60
2023/12/06 05:07:04;;;;;;;;;;;;;;;;;;5134930;27;19974;-59
2023/12/06 05:09:31;;;;;;;;;;;;;;;;;;5135013;27;19924;-60
2023/12/06 05:11:57;;;;;;;;;;;;;;;;;;5134214;27;19985;-60
2023/12/06 05:14:24;;;;;;;;;;;;;;;;;;5133898;27;20310;-58
2023/12/06 05:16:52;;;;;;;;;;;;;;;;;;5133967;27;19981;-60
2023/12/06 05:19:18;;;;;;;;;;;;;;;;;;5134446;27;20017;-61
2023/12/06 05:21:45;;;;;;;;;;;;;;;;;;5134135;27;20014;-59
2023/12/06 05:24:11;;;;;;;;;;;;;;;;;;5134558;27;19924;-61
2023/12/06 05:26:39;;;;;;;;;;;;;;;;;;5134294;27;20014;-60
2023/12/06 05:29:05;;;;;;;;;;;;;;;;;;5134213;27;19945;-60
2023/12/06 05:31:32;;;;;;;;;;;;;;;;;;5133881;27;19986;-60
2023/12/06 05:33:59;;;;;;;;;;;;;;;;;;5134390;27;19966;-60
2023/12/06 05:36:27;;;;;;;;;;;;;;;;;;5133986;27;20439;-60
2023/12/06 05:38:53;;;;;;;;;;;;;;;;;;5133528;27;20576;-59
2023/12/06 05:41:20;;;;;;;;;;;;;;;;;;5133554;27;19923;-60
2023/12/06 05:43:46;;;;;;;;;;;;;;;;;;5133638;27;20006;-60
2023/12/06 05:46:13;;;;;;;;;;;;;;;;;;5133611;27;19967;-61
2023/12/06 05:48:39;;;;;;;;;;;;;;;;;;5133808;27;19970;-59
2023/12/06 05:51:07;;;;;;;;;;;;;;;;;;5133702;27;20010;-60
2023/12/06 05:53:34;;;;;;;;;;;;;;;;;;5133667;27;20369;-60
2023/12/06 05:56:00;;;;;;;;;;;;;;;;;;5133275;27;20023;-61
2023/12/06 05:58:27;;;;;;;;;;;;;;;;;;5133728;27;19978;-61
2023/12/06 06:00:53;;;;;;;;;;;;;;;;;;5133770;27;20362;-60
2023/12/06 06:03:20;;;;;;;;;;;;;;;;;;5133618;27;19986;-60
2023/12/06 06:05:46;;;;;;;;;;;;;;;;;;5133677;27;20014;-59
2023/12/06 06:08:14;;;;;;;;;;;;;;;;;;5133942;27;19982;-60
2023/12/06 06:10:41;;;;;;;;;;;;;;;;;;5133750;27;19971;-60
2023/12/06 06:13:07;;;;;;;;;;;;;;;;;;5133494;27;20027;-60
2023/12/06 06:15:33;;;;;;;;;;;;;;;;;;5133532;27;19965;-60
2023/12/06 06:18:00;;;;;;;;;;;;;;;;;;5118907;27;19973;-60
2023/12/06 06:20:26;;;;;;;;;;;;;;;;;;5113081;28;20007;-58
2023/12/06 06:22:53;;;;;;;;;;;;;;;;;;5118688;27;20006;-61
2023/12/06 06:25:21;;;;;;;;;;;;;;;;;;5112907;28;19923;-59
2023/12/06 06:27:48;;;;;;;;;;;;;;;;;;5113109;28;19932;-60
2023/12/06 06:30:14;;;;;;;;;;;;;;;;;;5112751;28;19967;-60
2023/12/06 06:32:41;;;;;;;;;;;;;;;;;;5112630;28;19990;-58
2023/12/06 06:35:07;;;;;;;;;;;;;;;;;;5112931;28;20423;-61
2023/12/06 06:37:34;;;;;;;;;;;;;;;;;;5113067;28;19923;-61
2023/12/06 06:40:01;;;;;;;;;;;;;;;;;;5112772;28;20330;-61
2023/12/06 06:42:28;;;;;;;;;;;;;;;;;;5130761;27;19962;-61
2023/12/06 06:44:56;;;;;;;;;;;;;;;;;;5133303;27;19966;-61
2023/12/06 06:47:22;;;;;;;;;;;;;;;;;;5133656;27;19924;-61
2023/12/06 06:49:48;;;;;;;;;;;;;;;;;;5132873;27;20018;-61
2023/12/06 06:52:15;;;;;;;;;;;;;;;;;;5132523;27;19923;-61
2023/12/06 06:54:41;;;;;;;;;;;;;;;;;;5132875;27;19923;-61
2023/12/06 06:57:09;;;;;;;;;;;;;;;;;;5132953;27;19927;-61
2023/12/06 06:59:37;;;;;;;;;;;;;;;;;;5133259;27;20394;-60
2023/12/06 07:02:04;;;;;;;;;;;;;;;;;;5132531;27;19930;-61
2023/12/06 07:04:31;;;;;;;;;;;;;;;;;;5132613;27;19931;-61
2023/12/06 07:06:58;;;;;;;;;;;;;;;;;;5132547;27;20022;-61
2023/12/06 07:09:25;;;;;;;;;;;;;;;;;;5132816;27;19967;-60
2023/12/06 07:11:51;;;;;;;;;;;;;;;;;;5132611;27;19967;-60
2023/12/06 07:14:18;;;;;;;;;;;;;;;;;;5124172;27;20399;-61
2023/12/06 07:16:46;;;;;;;;;;;;;;;;;;5112024;28;19967;-61
2023/12/06 07:19:12;;;;;;;;;;;;;;;;;;5111709;28;19977;-60
2023/12/06 07:21:39;;;;;;;;;;;;;;;;;;5112122;28;20312;-60
2023/12/06 07:24:06;;;;;;;;;;;;;;;;;;5112403;28;20253;-60
2023/12/06 07:26:32;;;;;;;;;;;;;;;;;;5113861;27;19923;-60
2023/12/06 07:28:59;;;;;;;;;;;;;;;;;;5121532;27;19924;-60
2023/12/06 07:31:26;;;;;;;;;;;;;;;;;;5111861;28;20011;-61
2023/12/06 07:33:54;;;;;;;;;;;;;;;;;;5115812;27;20419;-60
2023/12/06 07:36:21;;;;;;;;;;;;;;;;;;5153095;27;20010;-60
2023/12/06 07:38:48;;;;;;;;;;;;;;;;;;5153194;27;19923;-61
2023/12/06 07:41:15;;;;;;;;;;;;;;;;;;5152632;27;19929;-60
2023/12/06 07:43:42;;;;;;;;;;;;;;;;;;5146672;27;20425;-60
2023/12/06 07:46:08;;;;;;;;;;;;;;;;;;5152556;27;20382;-61
2023/12/06 07:48:35;;;;;;;;;;;;;;;;;;5152677;27;20351;-60
2023/12/06 07:51:03;;;;;;;;;;;;;;;;;;5147805;27;20024;-60
2023/12/06 07:53:29;;;;;;;;;;;;;;;;;;5132354;27;19966;-63
2023/12/06 07:55:58;;;;;;;;;;;;;;;;;;5131933;27;19923;-61
2023/12/06 07:58:24;;;;;;;;;;;;;;;;;;5131954;27;20406;-61
2023/12/06 08:00:51;;;;;;;;;;;;;;;;;;5131888;27;19928;-60
2023/12/06 08:03:18;;;;;;;;;;;;;;;;;;5131554;27;19924;-60
2023/12/06 08:05:46;;;;;;;;;;;;;;;;;;5112284;27;20352;-61
2023/12/06 08:08:14;;;;;;;;;;;;;;;;;;5152613;27;19927;-61
2023/12/06 08:10:42;;;;;;;;;;;;;;;;;;5129504;27;20014;-61
2023/12/06 08:13:09;;;;;;;;;;;;;;;;;;5126803;27;20351;-61
2023/12/06 08:15:35;;;;;;;;;;;;;;;;;;5131870;27;19995;-61
2023/12/06 08:18:02;;;;;;;;;;;;;;;;;;5114206;28;19999;-61
2023/12/06 08:20:29;;;;;;;;;;;;;;;;;;5131999;28;19923;-59
2023/12/06 08:22:57;;;;;;;;;;;;;;;;;;5128681;28;20367;-59
2023/12/06 08:25:25;;;;;;;;;;;;;;;;;;5130055;28;19923;-62
2023/12/06 08:27:51;;;;;;;;;;;;;;;;;;5131387;28;19931;-60
2023/12/06 08:30:18;;;;;;;;;;;;;;;;;;5131693;28;20006;-60
2023/12/06 08:32:45;;;;;;;;;;;;;;;;;;5131819;28;19924;-58
2023/12/06 08:35:12;;;;;;;;;;;;;;;;;;5131644;28;19928;-60
2023/12/06 08:37:39;;;;;;;;;;;;;;;;;;5132300;28;20231;-60
2023/12/06 08:40:08;;;;;;;;;;;;;;;;;;5132005;28;20348;-60
2023/12/06 08:42:36;;;;;;;;;;;;;;;;;;5131362;28;20014;-60
2023/12/06 08:45:03;;;;;;;;;;;;;;;;;;5131895;28;19962;-59
2023/12/06 08:47:29;;;;;;;;;;;;;;;;;;5132072;28;20342;-59
2023/12/06 08:49:56;;;;;;;;;;;;;;;;;;5131972;28;19924;-59
2023/12/06 08:52:22;;;;;;;;;;;;;;;;;;5131485;28;20426;-60
2023/12/06 08:54:49;;;;;;;;;;;;;;;;;;5111883;28;20016;-60
2023/12/06 08:57:15;;;;;;;;;;;;;;;;;;5110433;28;19971;-59
2023/12/06 08:59:43;;;;;;;;;;;;;;;;;;5126088;28;19977;-60
2023/12/06 09:02:09;;;;;;;;;;;;;;;;;;5130538;28;20014;-61
2023/12/06 09:04:36;;;;;;;;;;;;;;;;;;5128058;28;20234;-61
2023/12/06 09:07:03;;;;;;;;;;;;;;;;;;5110496;28;19977;-60
2023/12/06 09:09:29;;;;;;;;;;;;;;;;;;5110424;28;19930;-60
2023/12/06 09:11:56;;;;;;;;;;;;;;;;;;5110832;28;19971;-62
2023/12/06 09:14:22;;;;;;;;;;;;;;;;;;5111623;28;19967;-62
2023/12/06 09:16:50;;;;;;;;;;;;;;;;;;5119121;27;20415;-60
2023/12/06 09:19:17;;;;;;;;;;;;;;;;;;5134327;27;19958;-60
2023/12/06 09:21:44;;;;;;;;;;;;;;;;;;5133795;27;19930;-60
2023/12/06 09:24:11;;;;;;;;;;;;;;;;;;5128703;27;19971;-62
2023/12/06 09:26:38;;;;;;;;;;;;;;;;;;5124099;27;19930;-62
2023/12/06 09:29:05;;;;;;;;;;;;;;;;;;5120420;27;20343;-59
2023/12/06 09:31:31;;;;;;;;;;;;;;;;;;5132478;27;20042;-63
2023/12/06 09:33:59;;;;;;;;;;;;;;;;;;5119032;27;19963;-64
2023/12/06 09:36:26;;;;;;;;;;;;;;;;;;5135201;27;19967;-63
2023/12/06 09:38:52;;;;;;;;;;;;;;;;;;5129049;27;19971;-61
2023/12/06 09:41:20;;;;;;;;;;;;;;;;;;5133564;27;20002;-63
2023/12/06 09:43:46;;;;;;;;;;;;;;;;;;5135760;27;19924;-59
2023/12/06 09:46:14;;;;;;;;;;;;;;;;;;5132682;27;19971;-60
2023/12/06 09:48:40;;;;;;;;;;;;;;;;;;5126711;27;19923;-61
2023/12/06 09:51:08;;;;;;;;;;;;;;;;;;5123284;27;20486;-62
2023/12/06 09:53:35;;;;;;;;;;;;;;;;;;5130881;27;20026;-61
2023/12/06 09:56:02;;;;;;;;;;;;;;;;;;5127909;27;20025;-58
2023/12/06 09:58:29;;;;;;;;;;;;;;;;;;5132999;27;19963;-59
2023/12/06 10:00:55;;;;;;;;;;;;;;;;;;5122150;27;19974;-60
2023/12/06 10:03:22;;;;;;;;;;;;;;;;;;5134059;27;19938;-57
2023/12/06 10:05:53;;;;;;;;;;;;;;;;;;5122502;27;20324;-60
2023/12/06 10:08:21;;;;;;;;;;;;;;;;;;5132094;27;19939;-59
2023/12/06 10:10:48;;;;;;;;;;;;;;;;;;5116924;27;19966;-59
2023/12/06 10:13:14;;;;;;;;;;;;;;;;;;5128405;27;20601;-59
2023/12/06 10:15:42;;;;;;;;;;;;;;;;;;5123877;27;19924;-62
2023/12/06 10:18:10;;;;;;;;;;;;;;;;;;5122294;27;19928;-61
2023/12/06 10:20:36;;;;;;;;;;;;;;;;;;5124517;27;19928;-62
2023/12/06 10:23:03;;;;;;;;;;;;;;;;;;5126227;27;19969;-62
2023/12/06 10:25:39;;;;;;;;;;;;;;;;;;5124530;27;20585;-62
2023/12/06 10:28:05;;;;;;;;;;;;;;;;;;5132829;27;19934;-61
2023/12/06 10:30:32;;;;;;;;;;;;;;;;;;5126819;27;20026;-61
2023/12/06 10:32:58;;;;;;;;;;;;;;;;;;5132936;27;20002;-62
2023/12/06 10:35:26;;;;;;;;;;;;;;;;;;5123594;27;19998;-62
2023/12/06 10:37:52;;;;;;;;;;;;;;;;;;5121761;27;19928;-61
2023/12/06 10:40:23;;;;;;;;;;;;;;;;;;5126086;27;19988;-62
2023/12/06 10:42:53;;;;;;;;;;;;;;;;;;5124582;27;20298;-60
2023/12/06 10:45:20;;;;;;;;;;;;;;;;;;5126125;27;20007;-61
2023/12/06 10:47:48;;;;;;;;;;;;;;;;;;5127506;27;19923;-60
2023/12/06 10:50:15;;;;;;;;;;;;;;;;;;5130330;27;19924;-61
2023/12/06 10:52:42;;;;;;;;;;;;;;;;;;5126379;27;20362;-60
2023/12/06 10:55:09;;;;;;;;;;;;;;;;;;5127081;27;19959;-61
2023/12/06 10:57:37;;;;;;;;;;;;;;;;;;5125201;27;19970;-62
2023/12/06 11:00:07;;;;;;;;;;;;;;;;;;5120114;27;20358;-61
2023/12/06 11:02:33;;;;;;;;;;;;;;;;;;5131850;27;20168;-62
2023/12/06 11:05:05;;;;;;;;;;;;;;;;;;5125945;27;19923;-61
2023/12/06 11:07:38;;;;;;;;;;;;;;;;;;5129588;27;20321;-61
2023/12/06 11:10:09;;;;;;;;;;;;;;;;;;5121739;27;19923;-60
2023/12/06 11:12:42;;;;;;;;;;;;;;;;;;5124911;27;19924;-62
2023/12/06 11:15:18;;;;;;;;;;;;;;;;;;5120479;27;19971;-62
2023/12/06 11:17:47;;;;;;;;;;;;;;;;;;5124198;27;19924;-62
2023/12/06 11:20:14;;;;;;;;;;;;;;;;;;5115976;27;19954;-62
2023/12/06 11:22:41;;;;;;;;;;;;;;;;;;5120967;27;20348;-62
2023/12/06 11:25:09;;;;;;;;;;;;;;;;;;5124439;27;20452;-62
2023/12/06 11:27:40;;;;;;;;;;;;;;;;;;5124922;27;20215;-61
2023/12/06 11:30:09;;;;;;;;;;;;;;;;;;5129164;27;19923;-61
2023/12/06 11:32:44;;;;;;;;;;;;;;;;;;5126439;27;19971;-61
2023/12/06 11:35:11;;;;;;;;;;;;;;;;;;5114596;27;20049;-59
2023/12/06 11:37:37;;;;;;;;;;;;;;;;;;5123110;27;20371;-61
2023/12/06 11:40:14;;;;;;;;;;;;;;;;;;5124017;27;19924;-60
2023/12/06 11:42:41;;;;;;;;;;;;;;;;;;5125496;27;19930;-61
2023/12/06 11:45:22;;;;;;;;;;;;;;;;;;5124178;27;19927;-61
2023/12/06 11:47:52;;;;;;;;;;;;;;;;;;5120318;27;19970;-61
2023/12/06 11:50:18;;;;;;;;;;;;;;;;;;5124624;27;19962;-61
2023/12/06 11:52:49;;;;;;;;;;;;;;;;;;5126271;27;20010;-62
2023/12/06 11:55:16;;;;;;;;;;;;;;;;;;5123156;27;19924;-61
2023/12/06 11:58:01;;;;;;;;;;;;;;;;;;5121268;27;20319;-61
2023/12/06 12:00:28;;;;;;;;;;;;;;;;;;5123477;27;19937;-63
2023/12/06 12:02:57;;;;;;;;;;;;;;;;;;5130503;27;19962;-61
2023/12/06 12:05:24;;;;;;;;;;;;;;;;;;5131009;27;20348;-61
2023/12/06 12:07:51;;;;;;;;;;;;;;;;;;5130750;27;19963;-60
2023/12/06 12:10:19;;;;;;;;;;;;;;;;;;5131023;27;19923;-61
2023/12/06 12:12:46;;;;;;;;;;;;;;;;;;5131098;28;20243;-61
2023/12/06 12:15:12;;;;;;;;;;;;;;;;;;5130819;27;19967;-61
2023/12/06 12:17:39;;;;;;;;;;;;;;;;;;5130956;27;19923;-63
2023/12/06 12:20:07;;;;;;;;;;;;;;;;;;5125302;28;20479;-62
2023/12/06 12:22:43;;;;;;;;;;;;;;;;;;5115024;28;19935;-58
2023/12/06 12:25:09;;;;;;;;;;;;;;;;;;5122462;28;20029;-60
2023/12/06 12:27:36;;;;;;;;;;;;;;;;;;5121158;28;20414;-64
2023/12/06 12:30:03;;;;;;;;;;;;;;;;;;5117832;28;19931;-64
2023/12/06 12:32:31;;;;;;;;;;;;;;;;;;5118773;28;19924;-64
2023/12/06 12:34:58;;;;;;;;;;;;;;;;;;5116496;28;19923;-61
2023/12/06 12:37:26;;;;;;;;;;;;;;;;;;5123599;28;19966;-61
2023/12/06 12:39:53;;;;;;;;;;;;;;;;;;5117660;28;20034;-61
2023/12/06 12:42:19;;;;;;;;;;;;;;;;;;5122364;28;19927;-60
2023/12/06 12:44:46;;;;;;;;;;;;;;;;;;5120065;28;20033;-61
2023/12/06 12:47:12;;;;;;;;;;;;;;;;;;5124988;28;19994;-61
2023/12/06 12:49:39;;;;;;;;;;;;;;;;;;5131990;27;19970;-61
2023/12/06 12:52:08;;;;;;;;;;;;;;;;;;5129479;27;19924;-61
2023/12/06 12:54:39;;;;;;;;;;;;;;;;;;5128191;27;20434;-61
2023/12/06 12:57:06;;;;;;;;;;;;;;;;;;5123108;27;19924;-61
2023/12/06 12:59:32;;;;;;;;;;;;;;;;;;5125134;27;20194;-61
2023/12/06 13:01:59;;;;;;;;;;;;;;;;;;5121022;27;20015;-61
2023/12/06 13:04:27;;;;;;;;;;;;;;;;;;5131740;27;19955;-61
2023/12/06 13:06:54;;;;;;;;;;;;;;;;;;5130404;27;19963;-61
2023/12/06 13:09:21;;;;;;;;;;;;;;;;;;5120720;27;20018;-61
2023/12/06 13:11:49;;;;;;;;;;;;;;;;;;5128290;27;19963;-61
2023/12/06 13:14:16;;;;;;;;;;;;;;;;;;5134763;27;20015;-61
2023/12/06 13:16:43;;;;;;;;;;;;;;;;;;5130203;27;20313;-61
2023/12/06 13:19:09;;;;;;;;;;;;;;;;;;5129608;27;19970;-59
2023/12/06 13:21:36;;;;;;;;;;;;;;;;;;5134438;27;20442;-59
2023/12/06 13:24:02;;;;;;;;;;;;;;;;;;5134261;27;19924;-60
2023/12/06 13:26:29;;;;;;;;;;;;;;;;;;5134171;27;19976;-59
2023/12/06 13:28:57;;;;;;;;;;;;;;;;;;5133976;27;20013;-59
2023/12/06 13:31:23;;;;;;;;;;;;;;;;;;5134298;27;20506;-60
2023/12/06 13:33:50;;;;;;;;;;;;;;;;;;5134283;27;19931;-59
2023/12/06 13:36:16;;;;;;;;;;;;;;;;;;5134203;27;19970;-59
2023/12/06 13:38:43;;;;;;;;;;;;;;;;;;5133817;27;20015;-60
2023/12/06 13:41:09;;;;;;;;;;;;;;;;;;5134064;27;20353;-60
2023/12/06 13:43:36;;;;;;;;;;;;;;;;;;5133735;27;19982;-58
2023/12/06 13:46:04;;;;;;;;;;;;;;;;;;5133678;27;19923;-58
2023/12/06 13:48:30;;;;;;;;;;;;;;;;;;5133860;27;20383;-58
2023/12/06 13:50:57;;;;;;;;;;;;;;;;;;5133730;27;20019;-60
2023/12/06 13:53:24;;;;;;;;;;;;;;;;;;5120036;27;20355;-59
2023/12/06 13:55:50;;;;;;;;;;;;;;;;;;5125733;27;19982;-60
2023/12/06 13:58:17;;;;;;;;;;;;;;;;;;5133159;27;19967;-60
2023/12/06 14:00:43;;;;;;;;;;;;;;;;;;5133143;27;20367;-58
2023/12/06 14:03:11;;;;;;;;;;;;;;;;;;5133676;27;20022;-58
2023/12/06 14:05:38;;;;;;;;;;;;;;;;;;5133716;27;20386;-58
2023/12/06 14:08:06;;;;;;;;;;;;;;;;;;5133793;27;19927;-57
2023/12/06 14:10:33;;;;;;;;;;;;;;;;;;5133727;27;19927;-59
2023/12/06 14:12:59;;;;;;;;;;;;;;;;;;5133778;27;19930;-59
2023/12/06 14:15:26;;;;;;;;;;;;;;;;;;5133809;27;19927;-59
2023/12/06 14:17:52;;;;;;;;;;;;;;;;;;5133502;27;19923;-58
2023/12/06 14:20:20;;;;;;;;;;;;;;;;;;5133502;27;20013;-58
2023/12/06 14:22:46;;;;;;;;;;;;;;;;;;5133655;27;20014;-58
2023/12/06 14:25:14;;;;;;;;;;;;;;;;;;5133394;27;20006;-60
2023/12/06 14:27:41;;;;;;;;;;;;;;;;;;5133648;27;20074;-59
2023/12/06 14:30:08;;;;;;;;;;;;;;;;;;5133131;27;20306;-58
2023/12/06 14:32:35;;;;;;;;;;;;;;;;;;5133501;27;19924;-58
2023/12/06 14:35:02;;;;;;;;;;;;;;;;;;5133083;27;19927;-58
2023/12/06 14:37:30;;;;;;;;;;;;;;;;;;5133245;27;20577;-59
2023/12/06 14:39:56;;;;;;;;;;;;;;;;;;5132699;27;19923;-59
2023/12/06 14:42:23;;;;;;;;;;;;;;;;;;5133108;27;20019;-59
2023/12/06 14:44:49;;;;;;;;;;;;;;;;;;5133157;27;20426;-59
2023/12/06 14:47:16;;;;;;;;;;;;;;;;;;5133219;27;20383;-59
2023/12/06 14:49:42;;;;;;;;;;;;;;;;;;5132896;27;19923;-59
2023/12/06 14:52:09;;;;;;;;;;;;;;;;;;5132840;27;20002;-59
2023/12/06 14:54:37;;;;;;;;;;;;;;;;;;5132351;27;20014;-58
2023/12/06 14:57:03;;;;;;;;;;;;;;;;;;5133015;27;20581;-59
2023/12/06 14:59:30;;;;;;;;;;;;;;;;;;5132888;27;20023;-59
2023/12/06 15:01:56;;;;;;;;;;;;;;;;;;5132609;27;19963;-59
2023/12/06 15:04:23;;;;;;;;;;;;;;;;;;5132663;27;20402;-59
2023/12/06 15:06:50;;;;;;;;;;;;;;;;;;5132783;27;19923;-58
2023/12/06 15:09:16;;;;;;;;;;;;;;;;;;5124769;27;19950;-59
2023/12/06 15:11:44;;;;;;;;;;;;;;;;;;5125853;27;20027;-59
2023/12/06 15:14:11;;;;;;;;;;;;;;;;;;5123712;27;20014;-58
2023/12/06 15:16:37;;;;;;;;;;;;;;;;;;5129614;27;20378;-57
2023/12/06 15:19:04;;;;;;;;;;;;;;;;;;5128161;27;19927;-59
2023/12/06 15:21:30;;;;;;;;;;;;;;;;;;5126906;27;20011;-59
2023/12/06 15:23:57;;;;;;;;;;;;;;;;;;5125928;27;19927;-59
2023/12/06 15:26:23;;;;;;;;;;;;;;;;;;5123905;27;19924;-59
2023/12/06 15:28:51;;;;;;;;;;;;;;;;;;5132743;27;20560;-59
2023/12/06 15:31:18;;;;;;;;;;;;;;;;;;5130316;27;20378;-65
2023/12/06 15:33:44;;;;;;;;;;;;;;;;;;5125115;27;20603;-62
2023/12/06 15:36:10;;;;;;;;;;;;;;;;;;5122443;27;19966;-61
2023/12/06 15:38:37;;;;;;;;;;;;;;;;;;5124599;27;20022;-61
2023/12/06 15:41:04;;;;;;;;;;;;;;;;;;5124377;27;20019;-62
2023/12/06 15:43:31;;;;;;;;;;;;;;;;;;5122813;27;19936;-61
2023/12/06 15:45:59;;;;;;;;;;;;;;;;;;5126293;27;20031;-62
2023/12/06 15:48:25;;;;;;;;;;;;;;;;;;5131572;27;20392;-62
2023/12/06 15:50:52;;;;;;;;;;;;;;;;;;5131397;27;19967;-59
2023/12/06 15:53:18;;;;;;;;;;;;;;;;;;5129397;27;20022;-61
2023/12/06 15:55:45;;;;;;;;;;;;;;;;;;5131719;27;19924;-61
2023/12/06 15:58:12;;;;;;;;;;;;;;;;;;5126105;27;19987;-60
2023/12/06 16:00:39;;;;;;;;;;;;;;;;;;5127346;27;19991;-63
2023/12/06 16:03:07;;;;;;;;;;;;;;;;;;5124837;27;20398;-63
2023/12/06 16:05:34;;;;;;;;;;;;;;;;;;5127218;27;19974;-60
2023/12/06 16:08:00;;;;;;;;;;;;;;;;;;5128442;27;19980;-60
2023/12/06 16:10:27;;;;;;;;;;;;;;;;;;5125631;27;19923;-62
2023/12/06 16:12:53;;;;;;;;;;;;;;;;;;5129622;27;19928;-63
2023/12/06 16:15:22;;;;;;;;;;;;;;;;;;5130419;27;19923;-60
2023/12/06 16:17:48;;;;;;;;;;;;;;;;;;5128445;27;19930;-62
2023/12/06 16:20:16;;;;;;;;;;;;;;;;;;5120270;27;20258;-62
2023/12/06 16:22:42;;;;;;;;;;;;;;;;;;5130311;27;19974;-62
2023/12/06 16:25:10;;;;;;;;;;;;;;;;;;5135456;27;20377;-62
2023/12/06 16:27:38;;;;;;;;;;;;;;;;;;5130596;27;19930;-62
2023/12/06 16:30:05;;;;;;;;;;;;;;;;;;5134036;27;19930;-61
2023/12/06 16:32:32;;;;;;;;;;;;;;;;;;5131980;27;19962;-61
2023/12/06 16:35:00;;;;;;;;;;;;;;;;;;5135020;27;20071;-61
2023/12/06 16:37:28;;;;;;;;;;;;;;;;;;5136756;27;19923;-60
2023/12/06 16:39:54;;;;;;;;;;;;;;;;;;5133188;27;19968;-61
2023/12/06 16:42:21;;;;;;;;;;;;;;;;;;5129893;27;19969;-61
2023/12/06 16:44:48;;;;;;;;;;;;;;;;;;5123489;27;20431;-63